UBBY

Zaqatala International Airport

Zaqatala, Azerbaijan
TAF UBBY 212300Z 2200/2209 VRB02KT 9999 FEW040 SCT080
Issued Valid From Valid To
Jan-21 @ 23:00 UTC
(an hour ago)
Jan-22 @ 00:00 UTC
(19 minutes ago)
Jan-22 @ 09:00 UTC
(in 9 hours)
Jan-22 @ 00:00 to Jan-22 @ 09:00
TAF UBBY 212300Z 2200/2209 VRB02KT 9999 FEW040 SCT080
Wind Visibility Clouds
Variable at 2 knots 10,000+ meters
  • Few at 4,000' AGL
  • Scattered at 8,000' AGL
TAF UBBY 212300Z 2200/2209 VRB02KT 9999 FEW040 SCT080
Issued Jan-21 @ 23:00 UTC
(an hour ago)
Valid From Jan-22 @ 00:00 UTC
(19 minutes ago)
Valid To Jan-22 @ 09:00 UTC
(in 9 hours)
Jan-22 @ 00:00 - Jan-22 @ 09:00
Wind Visibility
Variable at 2 knots 10,000+ meters
Clouds
  • Few at 4,000' AGL
  • Scattered at 8,000' AGL